Time;durP1;ratioP1;P1;durP2;ratioP2;P2;SDS_P1;SDS_P2;PMS_P1;PMS_P2;Temp;Humidity;BMP_temperature;BMP_pressure;BME280_temperature;BME280_humidity;BME280_pressure;Samples;Min_cycle;Max_cycle;Signal;HPM_P1;HPM_P2
2021/12/09 00:00:38;;;;;;;63.80;6.03;;;13.60;99.90;;;;;;5053474;28;20436;-76
2021/12/09 00:03:07;;;;;;;77.20;7.57;;;13.60;99.90;;;;;;5037075;28;20470;-76
2021/12/09 00:05:35;;;;;;;90.78;8.10;;;13.60;99.90;;;;;;5054685;28;20051;-75
2021/12/09 00:08:06;;;;;;;65.95;7.15;;;13.50;99.90;;;;;;5055010;28;20465;-75
2021/12/09 00:10:34;;;;;;;78.93;6.47;;;13.60;99.90;;;;;;5055122;28;20520;-76
2021/12/09 00:13:03;;;;;;;67.90;6.70;;;13.50;99.90;;;;;;5054767;28;20178;-76
2021/12/09 00:15:29;;;;;;;75.72;7.53;;;13.50;99.90;;;;;;5055083;28;20017;-77
2021/12/09 00:17:58;;;;;;;73.97;7.95;;;13.50;99.90;;;;;;5054857;28;20106;-76
2021/12/09 00:20:24;;;;;;;78.78;7.00;;;13.50;99.90;;;;;;5055123;28;20082;-75
2021/12/09 00:22:51;;;;;;;66.17;6.17;;;13.40;99.90;;;;;;5036566;28;20029;-76
2021/12/09 00:25:17;;;;;;;72.03;6.43;;;13.40;99.90;;;;;;5054783;28;20692;-75
2021/12/09 00:27:44;;;;;;;70.83;6.43;;;13.40;99.90;;;;;;5054496;28;20025;-76
2021/12/09 00:30:12;;;;;;;90.65;7.47;;;13.40;99.90;;;;;;5033105;28;20285;-75
2021/12/09 00:32:40;;;;;;;84.43;6.68;;;13.50;99.90;;;;;;5034621;28;20389;-75
2021/12/09 00:35:08;;;;;;;87.20;6.40;;;13.50;99.90;;;;;;5034817;28;20022;-75
2021/12/09 00:37:39;;;;;;;87.82;8.32;;;13.50;99.90;;;;;;5034547;28;20040;-75
2021/12/09 00:40:08;;;;;;;106.72;7.70;;;13.50;99.90;;;;;;5034887;28;20029;-77
2021/12/09 00:42:35;;;;;;;86.45;8.68;;;13.60;99.90;;;;;;5034446;28;20033;-74
2021/12/09 00:45:03;;;;;;;85.97;6.93;;;13.60;99.90;;;;;;5034356;28;20071;-76
2021/12/09 00:47:30;;;;;;;87.88;8.98;;;13.60;99.90;;;;;;5033811;28;20029;-76
2021/12/09 00:49:56;;;;;;;86.35;6.82;;;13.60;99.90;;;;;;5034069;28;20026;-76
2021/12/09 00:52:26;;;;;;;82.45;8.40;;;13.60;99.90;;;;;;5034005;28;20439;-76
2021/12/09 00:54:54;;;;;;;81.82;7.07;;;13.60;99.90;;;;;;5034689;28;20113;-76
2021/12/09 00:57:20;;;;;;;93.47;7.00;;;13.60;99.90;;;;;;5033811;28;20343;-76
2021/12/09 00:59:48;;;;;;;65.72;6.25;;;13.50;99.90;;;;;;5034040;28;20419;-75
2021/12/09 01:02:15;;;;;;;84.13;6.90;;;13.50;99.90;;;;;;5034001;28;20530;-76
2021/12/09 01:04:42;;;;;;;75.93;7.72;;;13.50;99.90;;;;;;5034091;28;20113;-75
2021/12/09 01:07:10;;;;;;;85.38;7.30;;;13.50;99.90;;;;;;5032442;28;20429;-75
2021/12/09 01:09:42;;;;;;;77.80;7.07;;;13.50;99.90;;;;;;5033687;28;20489;-75
2021/12/09 01:12:11;;;;;;;86.28;8.25;;;13.60;99.90;;;;;;5032324;28;20140;-76
2021/12/09 01:14:38;;;;;;;79.55;7.43;;;13.50;99.90;;;;;;5033962;28;20030;-77
2021/12/09 01:17:05;;;;;;;;;;;13.50;99.90;;;;;;5034004;28;20117;-76
2021/12/09 01:19:32;;;;;;;79.70;7.10;;;13.40;99.90;;;;;;5032179;28;20386;-76
2021/12/09 01:21:59;;;;;;;58.92;5.97;;;13.40;99.90;;;;;;5033526;28;20056;-75
2021/12/09 01:24:25;;;;;;;61.33;5.43;;;13.30;99.90;;;;;;5033540;28;20370;-76
2021/12/09 01:26:51;;;;;;;67.40;5.57;;;13.30;99.90;;;;;;5033614;28;20032;-75
2021/12/09 01:29:21;;;;;;;78.87;6.23;;;13.30;99.90;;;;;;5045488;28;20287;-75
2021/12/09 01:31:57;;;;;;;68.65;6.88;;;13.30;99.90;;;;;;5053102;28;20109;-75
2021/12/09 01:34:23;;;;;;;69.53;6.70;;;13.20;99.90;;;;;;5053212;28;20028;-76
2021/12/09 01:36:50;;;;;;;94.28;8.23;;;13.20;99.90;;;;;;5053434;28;20033;-75
2021/12/09 01:39:18;;;;;;;54.13;6.88;;;13.10;99.90;;;;;;5053620;28;20020;-75
2021/12/09 01:42:07;;;;;;;78.03;6.97;;;13.20;99.90;;;;;;5035139;28;20059;-76
2021/12/09 01:44:33;;;;;;;83.03;7.22;;;13.20;99.90;;;;;;5053091;28;20029;-77
2021/12/09 01:47:01;;;;;;;80.13;6.97;;;13.20;99.90;;;;;;5053081;28;20486;-75
2021/12/09 01:49:27;;;;;;;58.40;6.20;;;13.20;99.90;;;;;;5053533;28;20033;-76
2021/12/09 01:51:54;;;;;;;71.77;6.53;;;13.20;99.90;;;;;;5053432;28;20043;-76
2021/12/09 01:54:24;;;;;;;60.75;6.75;;;13.30;99.90;;;;;;5053216;28;20071;-76
2021/12/09 01:56:52;;;;;;;60.78;6.57;;;13.30;99.90;;;;;;5052765;28;20067;-76
2021/12/09 01:59:20;;;;;;;56.92;6.40;;;13.30;99.90;;;;;;5052508;28;20021;-75
2021/12/09 02:01:48;;;;;;;52.13;5.60;;;13.30;99.90;;;;;;5052604;28;20029;-76
2021/12/09 02:04:18;;;;;;;81.47;6.57;;;13.30;99.90;;;;;;5052677;28;20063;-76
2021/12/09 02:06:45;;;;;;;72.18;7.18;;;13.40;99.90;;;;;;5052821;28;20029;-76
2021/12/09 02:09:14;;;;;;;73.43;6.00;;;13.40;99.90;;;;;;5053003;28;20025;-76
2021/12/09 02:11:42;;;;;;;88.55;7.65;;;13.50;99.90;;;;;;5052540;28;20090;-75
2021/12/09 02:14:10;;;;;;;73.95;7.60;;;13.50;99.90;;;;;;5018580;28;20029;-70
2021/12/09 02:16:37;;;;;;;69.47;7.13;;;13.50;99.90;;;;;;5052703;28;20029;-74
2021/12/09 02:19:05;;;;;;;63.05;5.93;;;13.40;99.90;;;;;;5052382;28;20017;-75
2021/12/09 02:21:33;;;;;;;70.15;6.13;;;13.40;99.90;;;;;;5034329;28;20123;-75
2021/12/09 02:24:06;;;;;;;72.00;6.82;;;13.40;99.90;;;;;;5052143;28;20017;-75
2021/12/09 02:26:42;;;;;;;66.43;6.03;;;13.30;99.90;;;;;;5052140;28;20437;-75
2021/12/09 02:29:15;;;;;;;77.32;7.00;;;13.30;99.90;;;;;;5030676;28;20073;-74
2021/12/09 02:31:44;;;;;;;71.20;7.40;;;13.30;99.90;;;;;;5032433;28;20419;-77
2021/12/09 02:34:10;;;;;;;70.72;6.60;;;13.30;99.90;;;;;;5032508;28;20021;-76
2021/12/09 02:36:39;;;;;;;74.03;6.75;;;13.30;99.90;;;;;;5030779;28;20094;-75
2021/12/09 02:39:09;;;;;;;52.05;6.40;;;13.30;99.90;;;;;;5032145;28;20091;-75
2021/12/09 02:41:37;;;;;;;63.15;5.30;;;13.20;99.90;;;;;;5032068;28;20038;-76
2021/12/09 02:44:07;;;;;;;76.03;6.53;;;13.40;99.90;;;;;;5032129;28;20144;-75
2021/12/09 02:46:37;;;;;;;74.15;6.68;;;13.30;99.90;;;;;;5030595;28;20033;-75
2021/12/09 02:49:06;;;;;;;68.82;6.03;;;13.30;99.90;;;;;;5030922;28;20211;-75
2021/12/09 02:51:34;;;;;;;61.85;5.30;;;13.20;99.90;;;;;;5031994;28;20037;-76
2021/12/09 02:54:00;;;;;;;69.47;6.22;;;13.20;99.90;;;;;;5029630;28;20041;-76
2021/12/09 02:56:26;;;;;;;73.68;6.35;;;13.20;99.90;;;;;;5032141;28;20026;-75
2021/12/09 02:58:53;;;;;;;79.70;6.97;;;13.20;99.90;;;;;;5032245;28;20183;-75
2021/12/09 03:01:21;;;;;;;;;;;13.10;99.90;;;;;;5032435;28;20030;-75
2021/12/09 03:03:51;;;;;;;78.88;7.75;;;13.00;99.90;;;;;;5030993;28;19909;-75
2021/12/09 03:06:20;;;;;;;39.33;4.20;;;13.00;99.90;;;;;;5031846;28;20029;-75
2021/12/09 03:08:47;;;;;;;31.15;2.50;;;12.90;99.90;;;;;;5032176;28;20025;-75
2021/12/09 03:11:16;;;;;;;17.88;2.10;;;12.70;99.90;;;;;;5031823;28;20434;-76
2021/12/09 03:13:44;;;;;;;14.50;2.35;;;12.60;99.90;;;;;;5030110;28;20030;-77
2021/12/09 03:16:11;;;;;;;6.00;0.82;;;12.40;99.90;;;;;;5031768;28;20052;-75
2021/12/09 03:18:48;;;;;;;6.40;0.93;;;12.40;99.90;;;;;;5030426;28;20044;-77
2021/12/09 03:21:17;;;;;;;5.55;0.90;;;12.30;99.90;;;;;;5030298;28;20096;-75
2021/12/09 03:23:44;;;;;;;5.10;0.93;;;12.20;99.90;;;;;;5031772;28;20104;-76
2021/12/09 03:26:12;;;;;;;3.97;0.93;;;12.20;99.90;;;;;;5032404;28;20141;-76
2021/12/09 03:28:38;;;;;;;3.00;0.75;;;12.10;99.90;;;;;;5037999;28;20496;-76
2021/12/09 03:31:05;;;;;;;5.43;0.90;;;12.10;99.90;;;;;;5051889;28;20489;-76
2021/12/09 03:33:31;;;;;;;5.78;0.95;;;12.00;99.90;;;;;;5033460;28;20087;-77
2021/12/09 03:36:04;;;;;;;5.43;1.10;;;12.00;99.90;;;;;;5051544;28;20021;-75
2021/12/09 03:38:31;;;;;;;4.32;0.80;;;12.00;99.90;;;;;;5051717;28;20029;-75
2021/12/09 03:40:58;;;;;;;6.47;0.90;;;12.00;99.90;;;;;;5051542;28;20021;-76
2021/12/09 03:43:24;;;;;;;6.35;1.25;;;12.00;99.90;;;;;;5051623;28;20029;-76
2021/12/09 03:45:53;;;;;;;6.07;1.13;;;12.00;99.90;;;;;;5051517;28;20103;-75
2021/12/09 03:48:19;;;;;;;3.42;0.50;;;12.00;99.90;;;;;;5051378;28;20037;-76
2021/12/09 03:50:45;;;;;;;4.00;0.75;;;11.90;99.90;;;;;;5051482;28;20473;-76
2021/12/09 03:53:12;;;;;;;6.95;0.82;;;11.80;99.90;;;;;;5051391;28;20044;-76
2021/12/09 03:55:39;;;;;;;4.03;0.70;;;11.70;99.90;;;;;;5051434;28;20045;-75
2021/12/09 03:58:08;;;;;;;5.78;0.88;;;11.60;99.90;;;;;;5051286;28;20048;-76
2021/12/09 04:00:36;;;;;;;6.22;0.90;;;11.60;99.90;;;;;;5051246;28;20025;-76
2021/12/09 04:03:09;;;;;;;3.53;0.73;;;11.60;99.90;;;;;;5051255;28;20048;-76
2021/12/09 04:05:35;;;;;;;5.72;0.70;;;11.60;99.90;;;;;;5051785;28;20083;-76
2021/12/09 04:08:03;;;;;;;5.80;0.75;;;11.60;99.90;;;;;;5051459;28;20446;-76
2021/12/09 04:10:31;;;;;;;3.42;0.60;;;11.60;99.90;;;;;;5051431;28;20483;-76
2021/12/09 04:12:58;;;;;;;2.97;0.77;;;11.50;99.90;;;;;;5033263;28;20131;-76
2021/12/09 04:15:24;;;;;;;5.82;0.95;;;11.50;99.90;;;;;;5051628;28;20026;-76
2021/12/09 04:17:50;;;;;;;4.60;0.95;;;11.50;99.90;;;;;;5051311;28;20116;-76
2021/12/09 04:20:16;;;;;;;5.40;0.90;;;11.50;99.90;;;;;;5051767;28;20125;-76
2021/12/09 04:22:48;;;;;;;5.83;0.90;;;11.60;99.90;;;;;;5054445;28;20029;-76
2021/12/09 04:25:18;;;;;;;7.32;0.80;;;11.60;99.90;;;;;;5055074;28;20262;-76
2021/12/09 04:27:45;;;;;;;5.18;0.77;;;11.60;99.90;;;;;;5055074;28;20078;-76
2021/12/09 04:30:11;;;;;;;;;;;11.60;99.90;;;;;;5055284;28;20053;-76
2021/12/09 04:32:37;;;;;;;5.22;0.80;;;11.60;99.90;;;;;;5054999;28;19917;-76
2021/12/09 04:35:04;;;;;;;5.20;0.80;;;11.60;99.90;;;;;;5055565;28;20021;-76
2021/12/09 04:37:30;;;;;;;10.32;1.15;;;11.70;99.90;;;;;;5037456;28;20302;-77
2021/12/09 04:39:59;;;;;;;7.33;1.63;;;11.60;99.90;;;;;;5055318;28;20155;-75
2021/12/09 04:42:26;;;;;;;6.20;1.08;;;11.60;99.90;;;;;;5055368;28;20096;-77
2021/12/09 04:44:57;;;;;;;6.10;0.75;;;11.70;99.90;;;;;;5055353;28;20021;-76
2021/12/09 04:47:23;;;;;;;8.23;1.10;;;11.70;99.90;;;;;;5037977;28;20524;-76
2021/12/09 04:49:50;;;;;;;7.63;1.30;;;11.70;99.90;;;;;;5054584;28;20032;-76
2021/12/09 04:52:18;;;;;;;4.78;1.00;;;11.70;99.90;;;;;;5054488;28;20045;-75
2021/12/09 04:54:44;;;;;;;10.25;1.50;;;11.70;99.90;;;;;;5055159;28;20029;-77
2021/12/09 04:57:13;;;;;;;7.70;1.10;;;11.70;99.90;;;;;;5054957;28;20032;-76
2021/12/09 04:59:40;;;;;;;9.80;1.10;;;11.70;99.90;;;;;;5054836;28;20056;-76
2021/12/09 05:02:22;;;;;;;4.00;0.90;;;11.70;99.90;;;;;;5054737;28;20040;-77
2021/12/09 05:04:50;;;;;;;6.63;0.93;;;11.70;99.90;;;;;;5054649;28;20414;-76
2021/12/09 05:07:16;;;;;;;6.03;0.90;;;11.60;99.90;;;;;;5019967;28;20029;-74
2021/12/09 05:09:50;;;;;;;2.58;0.75;;;11.60;99.90;;;;;;5036138;28;20029;-75
2021/12/09 05:12:19;;;;;;;3.35;0.55;;;11.60;99.90;;;;;;5054319;28;20029;-75
2021/12/09 05:14:46;;;;;;;3.38;0.60;;;11.40;99.90;;;;;;5036461;28;20499;-77
2021/12/09 05:17:12;;;;;;;4.10;0.60;;;11.30;99.90;;;;;;5054331;28;20482;-75
2021/12/09 05:19:38;;;;;;;3.15;0.98;;;11.10;99.90;;;;;;5054641;28;20082;-75
2021/12/09 05:22:05;;;;;;;4.05;0.68;;;10.80;99.90;;;;;;5054359;28;20032;-75
2021/12/09 05:24:34;;;;;;;3.20;0.45;;;10.40;99.90;;;;;;5054657;28;20457;-75
2021/12/09 05:27:01;;;;;;;3.08;0.50;;;10.10;99.90;;;;;;5054255;28;20017;-75
2021/12/09 05:29:33;;;;;;;2.03;0.60;;;10.00;99.90;;;;;;5053893;28;20053;-71
2021/12/09 05:32:08;;;;;;;2.83;0.50;;;9.90;99.90;;;;;;5053022;28;20109;-75
2021/12/09 05:34:46;;;;;;;3.33;0.52;;;9.80;99.90;;;;;;5033277;28;20362;-73
2021/12/09 05:37:15;;;;;;;2.30;0.40;;;9.70;99.90;;;;;;5050899;28;20381;-70
2021/12/09 05:39:46;;;;;;;1.65;0.40;;;9.70;99.90;;;;;;5053702;28;20017;-75
2021/12/09 05:42:15;;;;;;;1.30;0.40;;;9.70;99.90;;;;;;5053359;28;20130;-70
2021/12/09 05:44:43;;;;;;;0.20;0.20;;;9.70;99.90;;;;;;5050417;28;20487;-74
2021/12/09 05:47:12;;;;;;;0.55;0.30;;;9.70;99.90;;;;;;5034838;28;20032;-75
2021/12/09 05:49:43;;;;;;;1.35;0.40;;;9.80;99.90;;;;;;5034725;28;20017;-75
2021/12/09 05:52:14;;;;;;;0.88;0.50;;;9.70;99.90;;;;;;5052658;28;20098;-72
2021/12/09 05:54:42;;;;;;;0.90;0.38;;;10.00;99.90;;;;;;5016212;28;20032;-75
2021/12/09 05:57:10;;;;;;;1.48;0.40;;;10.20;99.90;;;;;;5034877;28;20028;-75
2021/12/09 05:59:41;;;;;;;0.82;0.30;;;10.20;99.90;;;;;;5034325;28;20025;-74
2021/12/09 06:02:16;;;;;;;1.75;0.50;;;10.20;99.90;;;;;;5049763;28;20532;-76
2021/12/09 06:04:44;;;;;;;1.10;0.38;;;10.00;99.90;;;;;;5052099;28;20033;-75
2021/12/09 06:07:16;;;;;;;2.45;0.47;;;10.00;99.90;;;;;;5034154;28;20028;-75
2021/12/09 06:09:45;;;;;;;0.28;0.22;;;9.80;99.90;;;;;;5049956;28;20047;-76
2021/12/09 06:12:11;;;;;;;1.10;0.30;;;10.00;99.90;;;;;;5052139;28;20036;-74
2021/12/09 06:14:39;;;;;;;;;;;10.00;99.90;;;;;;5052451;28;20017;-73
2021/12/09 06:17:06;;;;;;;0.73;0.40;;;9.90;99.90;;;;;;5052171;28;20000;-75
2021/12/09 06:19:32;;;;;;;0.55;0.50;;;9.80;99.90;;;;;;5052636;28;20017;-76
2021/12/09 06:21:58;;;;;;;2.60;0.33;;;9.80;99.90;;;;;;5052325;28;20485;-76
2021/12/09 06:24:24;;;;;;;0.73;0.40;;;9.80;99.90;;;;;;5052412;28;20082;-76
2021/12/09 06:26:51;;;;;;;1.23;0.43;;;9.90;99.90;;;;;;5052296;28;20267;-75
2021/12/09 06:29:17;;;;;;;;;;;9.90;99.90;;;;;;5052335;28;20045;-75
2021/12/09 06:31:43;;;;;;;2.75;0.60;;;10.10;99.90;;;;;;5052649;28;19912;-76
2021/12/09 06:34:11;;;;;;;2.33;0.57;;;10.20;99.90;;;;;;5052522;28;20025;-77
2021/12/09 06:36:41;;;;;;;2.05;0.50;;;10.20;99.90;;;;;;5052683;28;20154;-75
2021/12/09 06:39:09;;;;;;;1.00;0.50;;;10.30;99.90;;;;;;5052668;28;20047;-76
2021/12/09 06:41:36;;;;;;;2.47;0.50;;;10.30;99.90;;;;;;5035005;28;20409;-77
2021/12/09 06:44:03;;;;;;;3.42;0.60;;;10.20;99.90;;;;;;5034401;28;20051;-77
2021/12/09 06:46:33;;;;;;;3.53;0.50;;;10.10;99.90;;;;;;5052248;28;20382;-76
2021/12/09 06:49:03;;;;;;;1.42;0.40;;;10.20;99.90;;;;;;5033818;28;20080;-76
2021/12/09 06:51:29;;;;;;;1.95;0.40;;;10.20;99.90;;;;;;5051839;28;20116;-77
2021/12/09 06:53:56;;;;;;;0.60;0.30;;;10.10;99.90;;;;;;5052062;28;20078;-77
2021/12/09 06:56:25;;;;;;;2.00;0.60;;;9.90;99.90;;;;;;5051424;28;20083;-77
2021/12/09 06:58:51;;;;;;;1.15;0.38;;;9.90;99.90;;;;;;5050940;28;20473;-77
2021/12/09 07:01:17;;;;;;;1.97;0.60;;;9.90;99.90;;;;;;5051264;28;20108;-78
2021/12/09 07:03:44;;;;;;;2.38;0.57;;;9.90;99.90;;;;;;5051434;28;20067;-77
2021/12/09 07:06:11;;;;;;;1.63;0.50;;;9.90;99.90;;;;;;5051531;28;20118;-78
2021/12/09 07:08:46;;;;;;;1.02;0.50;;;10.00;99.90;;;;;;5051776;28;20029;-78
2021/12/09 07:11:17;;;;;;;1.52;0.52;;;10.10;99.90;;;;;;5051493;28;20036;-80
2021/12/09 07:13:45;;;;;;;3.00;0.38;;;10.20;99.90;;;;;;5051917;28;20025;-79
2021/12/09 07:16:12;;;;;;;1.58;0.70;;;10.30;99.90;;;;;;5051834;28;20029;-79
2021/12/09 07:18:40;;;;;;;2.05;0.50;;;10.30;99.90;;;;;;5034410;28;20473;-79
2021/12/09 07:21:15;;;;;;;0.52;0.35;;;10.30;99.90;;;;;;5052253;28;20032;-80
2021/12/09 07:23:43;;;;;;;3.15;0.65;;;10.50;99.90;;;;;;5052465;28;20493;-81
2021/12/09 07:26:11;;;;;;;0.50;0.25;;;10.40;99.90;;;;;;5052540;28;20105;-81
2021/12/09 07:28:38;;;;;;;1.30;0.38;;;10.40;99.90;;;;;;5032881;28;20057;-80
2021/12/09 07:31:05;;;;;;;0.95;0.40;;;10.30;99.90;;;;;;5052261;28;20037;-80
2021/12/09 07:33:33;;;;;;;2.45;0.50;;;10.40;99.90;;;;;;5034094;28;20037;-80
2021/12/09 07:36:00;;;;;;;4.25;0.70;;;10.50;99.90;;;;;;5052468;28;20021;-81
2021/12/09 07:38:29;;;;;;;1.42;0.57;;;10.60;99.90;;;;;;5051777;28;20033;-81
2021/12/09 07:40:56;;;;;;;2.17;0.60;;;10.90;99.90;;;;;;5052382;28;20028;-82
2021/12/09 07:43:22;;;;;;;2.67;0.73;;;10.90;99.90;;;;;;5052480;28;20487;-81
2021/12/09 07:45:48;;;;;;;1.33;0.50;;;11.10;99.90;;;;;;5034448;28;20462;-82
2021/12/09 07:48:16;;;;;;;1.15;0.57;;;11.40;99.90;;;;;;5017313;28;20108;-81
2021/12/09 07:50:43;;;;;;;2.67;0.60;;;11.30;99.90;;;;;;5034788;28;20029;-81
2021/12/09 07:53:09;;;;;;;2.58;0.60;;;11.20;99.90;;;;;;5051777;28;20025;-81
2021/12/09 07:55:37;;;;;;;2.33;0.87;;;11.10;99.90;;;;;;5033930;28;20028;-81
2021/12/09 07:58:04;;;;;;;4.47;0.63;;;11.10;99.90;;;;;;5038008;28;20116;-81
2021/12/09 08:00:31;;;;;;;;;;;11.10;99.90;;;;;;5056390;28;20025;-81
2021/12/09 08:03:26;;;;;;;2.60;0.50;;;11.20;99.90;;;;;;5055593;28;19912;-81
2021/12/09 08:05:53;;;;;;;1.27;0.40;;;11.30;99.90;;;;;;5055568;28;20057;-81
2021/12/09 08:08:19;;;;;;;1.60;0.60;;;11.20;99.90;;;;;;5055539;28;20045;-82
2021/12/09 08:10:47;;;;;;;3.10;0.70;;;11.10;99.90;;;;;;5056282;28;20459;-81
2021/12/09 08:13:13;;;;;;;3.15;0.50;;;11.10;99.90;;;;;;5055337;28;20053;-81
2021/12/09 08:15:45;;;;;;;2.75;0.70;;;11.00;99.90;;;;;;5055509;28;20423;-80
2021/12/09 08:20:49;;;;;;;2.42;0.70;;;11.20;99.90;;;;;;5037651;28;20124;-80
2021/12/09 08:23:17;;;;;;;3.72;0.80;;;11.40;99.90;;;;;;5038347;28;20025;-82
2021/12/09 08:25:44;;;;;;;2.88;0.60;;;11.40;99.90;;;;;;5055562;28;20512;-81
2021/12/09 08:28:11;;;;;;;1.42;0.50;;;11.40;99.90;;;;;;5054963;28;20029;-80
2021/12/09 08:30:38;;;;;;;5.00;0.70;;;10.80;99.90;;;;;;5055015;28;20118;-81
2021/12/09 08:33:06;;;;;;;;;;;10.40;99.90;;;;;;5055320;28;20094;-81
2021/12/09 08:35:35;;;;;;;2.75;0.73;;;10.40;99.90;;;;;;5055453;28;19904;-81
2021/12/09 08:38:06;;;;;;;4.50;0.80;;;10.40;99.90;;;;;;5037342;28;20029;-80
2021/12/09 08:40:34;;;;;;;3.05;0.82;;;10.10;99.90;;;;;;5037468;28;20032;-81
2021/12/09 08:43:03;;;;;;;2.85;0.90;;;10.20;99.90;;;;;;5054677;28;20049;-82
2021/12/09 08:45:31;;;;;;;4.25;0.90;;;10.20;99.90;;;;;;5054635;28;20021;-82
2021/12/09 08:47:58;;;;;;;;;;;10.40;99.90;;;;;;5037962;28;20071;-83
2021/12/09 08:50:27;;;;;;;6.90;1.02;;;10.50;99.90;;;;;;5037436;28;19908;-85
2021/12/09 08:52:57;;;;;;;3.40;1.13;;;10.90;99.90;;;;;;5054967;28;20430;-83
2021/12/09 08:55:24;;;;;;;6.10;1.13;;;11.00;99.90;;;;;;5054868;28;20017;-84
2021/12/09 08:57:50;;;;;;;;;;;11.30;99.90;;;;;;5055178;28;20064;-83
2021/12/09 09:00:17;;;;;;;4.32;0.80;;;11.50;99.90;;;;;;5036426;28;19940;-83
2021/12/09 09:02:46;;;;;;;3.42;0.90;;;11.50;99.90;;;;;;5054716;28;20107;-83
2021/12/09 09:05:14;;;;;;;2.22;0.70;;;11.50;99.90;;;;;;5036681;28;20108;-83
2021/12/09 09:07:42;;;;;;;5.15;0.73;;;11.60;99.90;;;;;;5054076;28;20200;-79
2021/12/09 09:10:11;;;;;;;2.97;0.80;;;11.70;99.90;;;;;;5054621;28;20032;-81
2021/12/09 09:12:37;;;;;;;5.40;0.75;;;11.70;99.90;;;;;;5036401;28;20040;-76
2021/12/09 09:15:12;;;;;;;7.97;1.20;;;11.80;99.90;;;;;;5054815;28;20029;-78
2021/12/09 09:17:38;;;;;;;3.97;0.80;;;11.90;99.90;;;;;;5054622;28;20025;-77
2021/12/09 09:20:06;;;;;;;5.13;1.27;;;12.00;99.90;;;;;;5054540;28;20032;-77
2021/12/09 09:22:35;;;;;;;5.22;1.10;;;12.20;99.90;;;;;;5054374;28;20893;-80
2021/12/09 09:25:01;;;;;;;2.28;0.88;;;12.50;99.90;;;;;;5036458;28;20032;-80
2021/12/09 09:27:27;;;;;;;4.50;1.00;;;12.80;99.90;;;;;;5036331;28;20029;-82
2021/12/09 09:29:54;;;;;;;4.73;1.00;;;12.90;99.90;;;;;;5054162;28;20135;-81
2021/12/09 09:32:22;;;;;;;;;;;13.10;99.90;;;;;;5054527;28;20304;-82
2021/12/09 09:34:49;;;;;;;4.93;1.50;;;13.20;99.90;;;;;;5054170;28;20254;-80
2021/12/09 09:37:15;;;;;;;5.43;1.27;;;13.30;99.90;;;;;;5036620;28;20167;-79
2021/12/09 09:39:44;;;;;;;13.02;5.15;;;13.30;99.90;;;;;;5053989;28;20474;-80
2021/12/09 09:42:30;;;;;;;3.58;1.10;;;13.30;99.90;;;;;;5054477;28;20028;-80
2021/12/09 09:45:00;;;;;;;3.65;1.17;;;13.40;99.90;;;;;;4993068;28;20030;-82
2021/12/09 09:47:28;;;;;;;4.53;1.33;;;13.60;99.90;;;;;;4993170;28;20046;-82
2021/12/09 09:49:58;;;;;;;5.40;1.13;;;13.90;99.90;;;;;;4992971;28;20518;-82
2021/12/09 09:52:24;;;;;;;4.35;1.08;;;14.20;99.90;;;;;;4992094;28;20037;-80
2021/12/09 09:54:54;;;;;;;4.75;1.45;;;14.40;99.90;;;;;;4992370;28;20053;-81
2021/12/09 09:57:20;;;;;;;4.90;2.10;;;14.60;99.90;;;;;;4992092;28;20357;-80
2021/12/09 09:59:47;;;;;;;6.60;1.55;;;14.80;99.90;;;;;;4992113;28;20045;-81
2021/12/09 10:02:14;;;;;;;2.90;1.00;;;14.90;99.90;;;;;;4991948;28;20606;-80
2021/12/09 10:07:10;;;;;;;5.60;1.60;;;14.70;99.90;;;;;;4991739;28;20134;-81
2021/12/09 10:09:36;;;;;;;4.82;1.65;;;14.80;99.90;;;;;;4991524;28;20022;-83
2021/12/09 10:12:03;;;;;;;5.15;1.27;;;14.80;99.90;;;;;;4991939;28;20092;-82
2021/12/09 10:14:32;;;;;;;4.03;1.10;;;14.80;99.90;;;;;;4975500;28;20046;-82
2021/12/09 10:17:12;;;;;;;6.80;0.95;;;14.70;99.90;;;;;;5048431;28;20040;-81
2021/12/09 10:19:57;;;;;;;9.65;1.17;;;14.70;99.90;;;;;;5053079;28;20028;-81
2021/12/09 10:22:27;;;;;;;6.38;2.28;;;14.70;99.90;;;;;;5035125;28;20063;-80
2021/12/09 10:24:55;;;;;;;5.00;1.08;;;14.80;99.90;;;;;;5053317;28;20029;-82
2021/12/09 10:27:33;;;;;;;5.97;1.17;;;14.90;99.90;;;;;;5053197;28;20025;-81
2021/12/09 10:30:20;;;;;;;8.38;1.23;;;15.00;99.90;;;;;;5052874;28;20044;-81
2021/12/09 10:32:49;;;;;;;5.38;1.05;;;15.10;99.90;;;;;;5053318;28;20487;-81
2021/12/09 10:35:18;;;;;;;9.23;1.10;;;15.40;99.90;;;;;;5052590;28;20100;-83
2021/12/09 10:37:47;;;;;;;6.82;1.00;;;15.50;99.90;;;;;;5052828;28;20028;-81
2021/12/09 10:40:18;;;;;;;5.82;1.50;;;15.50;99.90;;;;;;5052556;28;20052;-83
2021/12/09 10:42:57;;;;;;;8.02;1.40;;;15.30;99.90;;;;;;5052821;28;20063;-82
2021/12/09 10:45:32;;;;;;;8.88;2.13;;;15.00;99.90;;;;;;5053069;28;20040;-82
2021/12/09 10:50:53;;;;;;;7.20;2.00;;;14.30;99.90;;;;;;5052618;28;20039;-83
2021/12/09 10:55:56;;;;;;;9.88;1.73;;;14.00;99.90;;;;;;5052802;28;20045;-81
2021/12/09 10:58:30;;;;;;;6.20;1.00;;;13.90;99.90;;;;;;5052714;28;20024;-80
2021/12/09 11:01:01;;;;;;;6.00;1.10;;;13.60;99.90;;;;;;5052674;28;20040;-82
2021/12/09 11:03:30;;;;;;;3.72;0.77;;;13.50;99.90;;;;;;5052623;28;20116;-80
2021/12/09 11:06:03;;;;;;;6.03;0.77;;;13.20;99.90;;;;;;5051906;28;20086;-81
2021/12/09 11:08:43;;;;;;;9.07;0.90;;;12.80;99.90;;;;;;5052050;28;20028;-82
2021/12/09 11:11:32;;;;;;;9.30;1.00;;;12.70;99.90;;;;;;5051941;28;20063;-83
2021/12/09 11:14:00;;;;;;;8.50;1.15;;;12.90;99.90;;;;;;5052475;28;20358;-76
2021/12/09 11:16:32;;;;;;;7.88;1.20;;;13.00;99.90;;;;;;5034137;28;20397;-81
2021/12/09 11:19:07;;;;;;;7.13;1.40;;;13.40;99.90;;;;;;5052353;28;20087;-79
2021/12/09 11:21:41;;;;;;;6.90;1.20;;;13.70;99.90;;;;;;5051677;28;20078;-81
2021/12/09 11:24:12;;;;;;;3.92;0.80;;;13.90;99.90;;;;;;5052453;28;20450;-79
2021/12/09 11:29:21;;;;;;;6.63;1.05;;;14.20;99.90;;;;;;5051945;28;20076;-80
2021/12/09 11:31:58;;;;;;;8.13;1.20;;;14.50;99.90;;;;;;5055632;28;20125;-79
2021/12/09 11:34:32;;;;;;;9.65;1.30;;;14.50;99.90;;;;;;5056436;28;20093;-80
2021/12/09 11:37:12;;;;;;;8.43;1.23;;;14.80;99.90;;;;;;5056283;28;20021;-82
2021/12/09 11:39:39;;;;;;;7.38;1.45;;;14.70;99.90;;;;;;5038251;28;20120;-81
2021/12/09 11:42:15;;;;;;;8.63;1.35;;;14.50;99.90;;;;;;5055964;28;20021;-81
2021/12/09 11:44:43;;;;;;;7.93;1.10;;;14.20;99.90;;;;;;5056109;28;20299;-82
2021/12/09 11:47:10;;;;;;;8.90;1.35;;;14.20;99.90;;;;;;5055724;28;20052;-80
2021/12/09 11:49:36;;;;;;;8.52;1.40;;;14.20;99.90;;;;;;5056047;28;20098;-80
2021/12/09 11:52:03;;;;;;;7.97;1.35;;;14.40;99.90;;;;;;5056206;28;20486;-80
2021/12/09 11:54:29;;;;;;;9.60;2.38;;;14.60;99.90;;;;;;5037898;28;20434;-81
2021/12/09 11:57:10;;;;;;;6.68;1.13;;;14.80;99.90;;;;;;5055450;28;20067;-81
2021/12/09 12:15:49;;;;;;;6.85;1.08;;;13.90;99.90;;;;;;5054822;28;20027;-76
2021/12/09 12:18:51;;;;;;;4.22;0.75;;;14.10;99.90;;;;;;5054988;28;20453;-76
2021/12/09 12:21:37;;;;;;;4.63;0.75;;;14.00;99.90;;;;;;5054471;28;20059;-76
2021/12/09 12:27:40;;;;;;;6.07;1.15;;;14.20;99.90;;;;;;5023549;28;20037;-76
2021/12/09 12:33:18;;;;;;;4.68;0.73;;;13.90;99.90;;;;;;5054951;28;20090;-75
2021/12/09 12:36:00;;;;;;;4.90;1.10;;;14.10;99.90;;;;;;5055369;28;20112;-77
2021/12/09 12:41:06;;;;;;;8.30;1.30;;;13.90;99.90;;;;;;5054846;28;20090;-75
2021/12/09 12:43:56;;;;;;;7.20;1.50;;;14.00;99.90;;;;;;5054700;28;20044;-77
2021/12/09 12:46:49;;;;;;;9.27;0.85;;;14.10;99.90;;;;;;5036717;28;20032;-77
2021/12/09 12:49:28;;;;;;;7.38;1.08;;;14.30;99.90;;;;;;5054935;28;20056;-77
2021/12/09 12:52:02;;;;;;;6.45;0.90;;;14.30;99.90;;;;;;5054236;28;20559;-76
2021/12/09 12:54:54;;;;;;;6.18;0.80;;;14.40;99.90;;;;;;5054894;28;20384;-75
2021/12/09 12:57:33;;;;;;;9.35;1.17;;;14.40;99.90;;;;;;5037059;28;20469;-76
2021/12/09 13:00:14;;;;;;;3.88;0.90;;;14.40;99.90;;;;;;5054226;28;20032;-76
2021/12/09 13:03:09;;;;;;;4.40;1.10;;;14.40;99.90;;;;;;5055031;28;20454;-76
2021/12/09 13:11:20;;;;;;;6.18;1.10;;;14.40;99.90;;;;;;5037515;28;20118;-77
2021/12/09 13:13:57;;;;;;;8.45;0.73;;;14.50;99.90;;;;;;5054630;28;20473;-76
2021/12/09 13:16:48;;;;;;;3.90;0.80;;;14.60;99.90;;;;;;5038358;28;20461;-77
2021/12/09 13:19:21;;;;;;;5.75;1.05;;;14.70;99.90;;;;;;5055157;28;20114;-76
2021/12/09 13:21:55;;;;;;;8.68;1.20;;;15.00;99.90;;;;;;5055750;28;20032;-77
2021/12/09 13:24:50;;;;;;;7.28;1.00;;;15.00;99.90;;;;;;5055293;28;20025;-77
2021/12/09 13:30:13;;;;;;;6.97;1.05;;;15.20;99.90;;;;;;5054873;28;20041;-76
2021/12/09 13:36:29;;;;;;;6.70;1.00;;;15.10;99.70;;;;;;5055071;28;20063;-77
2021/12/09 13:50:15;;;;;;;6.50;1.65;;;14.20;99.90;;;;;;5054345;28;19915;-74
2021/12/09 13:55:19;;;;;;;7.20;1.05;;;12.90;99.90;;;;;;5052942;28;20056;-76
2021/12/09 13:58:00;;;;;;;2.83;0.80;;;12.40;99.90;;;;;;5037089;28;20066;-76
2021/12/09 14:00:26;;;;;;;6.95;0.88;;;11.70;99.90;;;;;;5054324;28;20024;-74
2021/12/09 14:02:57;;;;;;;5.28;0.55;;;11.60;99.90;;;;;;5053588;28;20033;-73
2021/12/09 14:05:24;;;;;;;3.10;0.60;;;11.60;99.90;;;;;;5053990;28;20036;-75